Dobbins Air Reserve Base Airport Marietta US
ICAO: KMGE
IATA: MGE
Category: Large
Scheduled Services: No

Elevation: 1068 ft
TransAlt. 18000 ft.

Airport Communications:
ATLANTA APP/DEP:121
ATIS:26.95
GND:125.3
NAVY OPS:34.02
ARNG OPS:47
PMSV METRO:27.475
94AW COMD POST:37.952
PTD:139.3
TWR:120.75

KMGE Zoom In..

Runways:

(A) RW 11 length 10002 ft width 300 ft
ILS 109.70 / hdg 109

(B) RW 29 length 10002 ft width 300 ft
ILS 111.35 / hdg 289

Location; KMGE
Day. 20 / Time. 19.56 Zulu
* Altimeter: 29.99
* Temperature: 30° c. 86°f.
* Wind from: 070° Speed 04 kn.
Dewpoint: 20° c.
Visibility: 10 Statute Miles.
Clouds: Scattered 4500 ft.
Clouds: Broken 25000 ft.

KMGE 201956Z 07004KT 10SM SCT045 BKN250 30/20 A2999 RMK AO2A SLP145 T02950198 $


Wind From 070°
Speed 04 kn.

 
 
jpsmedia.com for Web Design worldairports.se 2018   terms of use